sensor_id;sensor_type;location;lat;lon;timestamp;pressure;altitude;pressure_sealevel;temperature;humidity
30856;BME280;17570;0.000;0.000;2023-04-03T00:00:11;96415.69;;;17.63;36.18
30856;BME280;17570;0.000;0.000;2023-04-03T00:02:39;96413.61;;;17.58;36.54
30856;BME280;17570;0.000;0.000;2023-04-03T00:05:07;96416.58;;;17.55;36.64
30856;BME280;17570;0.000;0.000;2023-04-03T00:07:34;96422.98;;;17.52;36.16
30856;BME280;17570;0.000;0.000;2023-04-03T00:10:02;96416.77;;;17.53;36.15
30856;BME280;17570;0.000;0.000;2023-04-03T00:12:29;96415.92;;;17.53;36.08
30856;BME280;17570;0.000;0.000;2023-04-03T00:14:57;96411.05;;;17.50;36.37
30856;BME280;17570;0.000;0.000;2023-04-03T00:17:25;96409.05;;;17.52;36.13
30856;BME280;17570;0.000;0.000;2023-04-03T00:19:52;96406.80;;;17.49;36.17
30856;BME280;17570;0.000;0.000;2023-04-03T00:22:20;96402.44;;;17.41;36.12
30856;BME280;17570;0.000;0.000;2023-04-03T00:24:47;96401.16;;;17.37;36.82
30856;BME280;17570;0.000;0.000;2023-04-03T00:27:15;96398.88;;;17.34;36.37
30856;BME280;17570;0.000;0.000;2023-04-03T00:29:42;96396.26;;;17.34;35.93
30856;BME280;17570;0.000;0.000;2023-04-03T00:32:09;96399.80;;;17.26;36.34
30856;BME280;17570;0.000;0.000;2023-04-03T00:34:37;96391.55;;;17.29;36.45
30856;BME280;17570;0.000;0.000;2023-04-03T00:37:05;96393.89;;;17.24;36.60
30856;BME280;17570;0.000;0.000;2023-04-03T00:39:32;96382.97;;;17.21;36.44
30856;BME280;17570;0.000;0.000;2023-04-03T00:42:00;96381.41;;;17.12;36.68
30856;BME280;17570;0.000;0.000;2023-04-03T00:46:56;96380.69;;;17.18;37.67
30856;BME280;17570;0.000;0.000;2023-04-03T00:49:24;96373.81;;;17.17;36.42
30856;BME280;17570;0.000;0.000;2023-04-03T00:51:51;96379.22;;;17.15;36.74
30856;BME280;17570;0.000;0.000;2023-04-03T00:54:19;96384.84;;;17.12;36.96
30856;BME280;17570;0.000;0.000;2023-04-03T00:56:46;96388.33;;;17.04;36.90
30856;BME280;17570;0.000;0.000;2023-04-03T00:59:16;96388.52;;;17.03;36.80
30856;BME280;17570;0.000;0.000;2023-04-03T01:01:44;96384.90;;;17.04;37.68
30856;BME280;17570;0.000;0.000;2023-04-03T01:04:26;96379.72;;;16.96;37.21
30856;BME280;17570;0.000;0.000;2023-04-03T01:06:41;96385.42;;;16.99;36.86
30856;BME280;17570;0.000;0.000;2023-04-03T01:09:09;96387.77;;;16.94;36.38
30856;BME280;17570;0.000;0.000;2023-04-03T01:11:36;96388.77;;;16.93;36.78
30856;BME280;17570;0.000;0.000;2023-04-03T01:14:04;96384.48;;;16.92;36.29
30856;BME280;17570;0.000;0.000;2023-04-03T01:16:33;96386.82;;;16.87;36.50
30856;BME280;17570;0.000;0.000;2023-04-03T01:19:01;96392.44;;;16.84;36.73
30856;BME280;17570;0.000;0.000;2023-04-03T01:21:43;96389.16;;;16.82;36.86
30856;BME280;17570;0.000;0.000;2023-04-03T01:26:37;96390.54;;;16.70;36.90
30856;BME280;17570;0.000;0.000;2023-04-03T01:29:05;96397.41;;;16.71;36.76
30856;BME280;17570;0.000;0.000;2023-04-03T01:31:56;96402.98;;;16.68;37.18
30856;BME280;17570;0.000;0.000;2023-04-03T01:34:02;96396.93;;;16.67;37.29
30856;BME280;17570;0.000;0.000;2023-04-03T01:36:31;96407.30;;;16.61;37.23
30856;BME280;17570;0.000;0.000;2023-04-03T01:38:59;96394.20;;;16.61;37.17
30856;BME280;17570;0.000;0.000;2023-04-03T01:41:27;96393.20;;;16.62;37.17
30856;BME280;17570;0.000;0.000;2023-04-03T01:43:56;96401.98;;;16.69;37.43
30856;BME280;17570;0.000;0.000;2023-04-03T01:46:24;96401.02;;;16.70;37.03
30856;BME280;17570;0.000;0.000;2023-04-03T01:48:51;96406.48;;;16.60;37.02
30856;BME280;17570;0.000;0.000;2023-04-03T01:51:19;96404.02;;;16.58;37.03
30856;BME280;17570;0.000;0.000;2023-04-03T01:53:46;96399.48;;;16.52;36.82
30856;BME280;17570;0.000;0.000;2023-04-03T01:56:14;96405.23;;;16.48;36.91
30856;BME280;17570;0.000;0.000;2023-04-03T01:58:42;96402.80;;;16.46;37.47
30856;BME280;17570;0.000;0.000;2023-04-03T02:01:09;96407.05;;;16.47;37.42
30856;BME280;17570;0.000;0.000;2023-04-03T02:03:37;96405.42;;;16.46;37.35
30856;BME280;17570;0.000;0.000;2023-04-03T02:06:05;96401.95;;;16.46;37.34
30856;BME280;17570;0.000;0.000;2023-04-03T02:08:32;96398.38;;;16.47;37.66
30856;BME280;17570;0.000;0.000;2023-04-03T02:11:00;96398.23;;;16.40;36.61
30856;BME280;17570;0.000;0.000;2023-04-03T02:13:27;96396.64;;;16.31;36.76
30856;BME280;17570;0.000;0.000;2023-04-03T02:15:55;96396.64;;;16.31;37.30
30856;BME280;17570;0.000;0.000;2023-04-03T02:18:22;96401.43;;;16.27;37.24
30856;BME280;17570;0.000;0.000;2023-04-03T02:20:50;96400.95;;;16.24;37.01
30856;BME280;17570;0.000;0.000;2023-04-03T02:23:17;96406.03;;;16.17;36.91
30856;BME280;17570;0.000;0.000;2023-04-03T02:25:45;96407.69;;;16.18;37.28
30856;BME280;17570;0.000;0.000;2023-04-03T02:28:12;96406.84;;;16.18;37.30
30856;BME280;17570;0.000;0.000;2023-04-03T02:30:39;96409.64;;;16.16;37.23
30856;BME280;17570;0.000;0.000;2023-04-03T02:33:07;96400.34;;;16.14;37.21
30856;BME280;17570;0.000;0.000;2023-04-03T02:35:35;96405.42;;;16.07;37.77
30856;BME280;17570;0.000;0.000;2023-04-03T02:38:03;96402.02;;;15.98;37.28
30856;BME280;17570;0.000;0.000;2023-04-03T02:40:32;96405.14;;;15.94;37.19
30856;BME280;17570;0.000;0.000;2023-04-03T02:43:00;96407.45;;;15.89;37.52
30856;BME280;17570;0.000;0.000;2023-04-03T02:45:28;96403.03;;;15.89;37.56
30856;BME280;17570;0.000;0.000;2023-04-03T02:47:56;96406.16;;;15.85;37.13
30856;BME280;17570;0.000;0.000;2023-04-03T02:50:23;96407.15;;;15.84;37.58
30856;BME280;17570;0.000;0.000;2023-04-03T02:52:51;96402.09;;;15.82;37.40
30856;BME280;17570;0.000;0.000;2023-04-03T02:55:18;96402.42;;;15.79;37.82
30856;BME280;17570;0.000;0.000;2023-04-03T02:57:47;96404.55;;;15.75;37.84
30856;BME280;17570;0.000;0.000;2023-04-03T03:00:14;96404.23;;;15.70;37.71
30856;BME280;17570;0.000;0.000;2023-04-03T03:02:42;96401.80;;;15.69;38.19
30856;BME280;17570;0.000;0.000;2023-04-03T03:05:10;96398.03;;;15.63;37.31
30856;BME280;17570;0.000;0.000;2023-04-03T03:07:38;96398.17;;;15.62;37.59
30856;BME280;17570;0.000;0.000;2023-04-03T03:10:06;96397.36;;;15.61;37.98
30856;BME280;17570;0.000;0.000;2023-04-03T03:12:34;96391.02;;;15.64;37.67
30856;BME280;17570;0.000;0.000;2023-04-03T03:15:01;96390.52;;;15.68;37.75
30856;BME280;17570;0.000;0.000;2023-04-03T03:17:29;96392.47;;;15.66;37.92
30856;BME280;17570;0.000;0.000;2023-04-03T03:19:56;96387.89;;;15.60;38.28
30856;BME280;17570;0.000;0.000;2023-04-03T03:22:24;96382.98;;;15.57;37.94
30856;BME280;17570;0.000;0.000;2023-04-03T03:24:51;96388.89;;;15.51;37.51
30856;BME280;17570;0.000;0.000;2023-04-03T03:27:19;96387.27;;;15.50;38.02
30856;BME280;17570;0.000;0.000;2023-04-03T03:29:47;96382.36;;;15.47;38.09
30856;BME280;17570;0.000;0.000;2023-04-03T03:32:14;96384.16;;;15.46;38.38
30856;BME280;17570;0.000;0.000;2023-04-03T03:34:42;96379.91;;;15.45;38.65
30856;BME280;17570;0.000;0.000;2023-04-03T03:37:09;96379.10;;;15.45;38.27
30856;BME280;17570;0.000;0.000;2023-04-03T03:39:37;96379.25;;;15.43;38.21
30856;BME280;17570;0.000;0.000;2023-04-03T03:42:04;96376.48;;;15.45;38.31
30856;BME280;17570;0.000;0.000;2023-04-03T03:44:32;96373.06;;;15.44;38.09
30856;BME280;17570;0.000;0.000;2023-04-03T03:46:59;96378.92;;;15.46;38.13
30856;BME280;17570;0.000;0.000;2023-04-03T03:49:28;96374.69;;;15.45;38.55
30856;BME280;17570;0.000;0.000;2023-04-03T03:51:55;96375.01;;;15.42;38.07
30856;BME280;17570;0.000;0.000;2023-04-03T03:54:23;96371.40;;;15.43;37.98
30856;BME280;17570;0.000;0.000;2023-04-03T03:56:51;96372.75;;;15.39;38.03
30856;BME280;17570;0.000;0.000;2023-04-03T03:59:18;96375.19;;;15.41;38.15
30856;BME280;17570;0.000;0.000;2023-04-03T04:01:47;96375.17;;;15.49;38.20
30856;BME280;17570;0.000;0.000;2023-04-03T04:04:14;96380.04;;;15.60;40.11
30856;BME280;17570;0.000;0.000;2023-04-03T04:06:42;96371.72;;;15.65;39.99
30856;BME280;17570;0.000;0.000;2023-04-03T04:09:10;96376.77;;;15.66;39.84
30856;BME280;17570;0.000;0.000;2023-04-03T04:11:37;96374.81;;;15.60;39.03
30856;BME280;17570;0.000;0.000;2023-04-03T04:14:06;96374.67;;;15.53;38.69
30856;BME280;17570;0.000;0.000;2023-04-03T04:16:36;96374.51;;;15.47;38.60
30856;BME280;17570;0.000;0.000;2023-04-03T04:19:05;96373.37;;;15.41;38.65
30856;BME280;17570;0.000;0.000;2023-04-03T04:21:33;96382.89;;;15.34;38.52
30856;BME280;17570;0.000;0.000;2023-04-03T04:24:01;96386.95;;;15.28;38.30
30856;BME280;17570;0.000;0.000;2023-04-03T04:26:28;96384.69;;;15.25;38.44
30856;BME280;17570;0.000;0.000;2023-04-03T04:28:56;96387.77;;;15.29;38.69
30856;BME280;17570;0.000;0.000;2023-04-03T04:31:24;96385.16;;;15.29;38.75
30856;BME280;17570;0.000;0.000;2023-04-03T04:33:52;96396.78;;;15.26;38.54
30856;BME280;17570;0.000;0.000;2023-04-03T04:36:19;96399.89;;;15.22;38.83
30856;BME280;17570;0.000;0.000;2023-04-03T04:38:48;96394.80;;;15.28;38.70
30856;BME280;17570;0.000;0.000;2023-04-03T04:41:17;96399.39;;;15.26;38.43
30856;BME280;17570;0.000;0.000;2023-04-03T04:43:46;96403.00;;;15.25;38.58
30856;BME280;17570;0.000;0.000;2023-04-03T04:46:15;96402.33;;;15.23;38.69
30856;BME280;17570;0.000;0.000;2023-04-03T04:48:44;96401.83;;;15.20;38.76
30856;BME280;17570;0.000;0.000;2023-04-03T04:51:12;96408.22;;;15.17;38.96
30856;BME280;17570;0.000;0.000;2023-04-03T04:53:40;96413.28;;;15.19;38.86
30856;BME280;17570;0.000;0.000;2023-04-03T04:56:10;96418.02;;;15.23;38.88
30856;BME280;17570;0.000;0.000;2023-04-03T04:58:38;96403.81;;;15.26;38.98
30856;BME280;17570;0.000;0.000;2023-04-03T05:01:08;96411.66;;;15.26;39.16
30856;BME280;17570;0.000;0.000;2023-04-03T05:03:38;96418.02;;;15.23;39.03
30856;BME280;17570;0.000;0.000;2023-04-03T05:06:06;96407.23;;;15.26;39.15
30856;BME280;17570;0.000;0.000;2023-04-03T05:08:34;96406.56;;;15.33;39.18
30856;BME280;17570;0.000;0.000;2023-04-03T05:11:02;96418.16;;;15.38;39.42
30856;BME280;17570;0.000;0.000;2023-04-03T05:13:30;96413.10;;;15.45;39.39
30856;BME280;17570;0.000;0.000;2023-04-03T05:15:58;96412.61;;;15.49;39.29
30856;BME280;17570;0.000;0.000;2023-04-03T05:18:26;96420.45;;;15.49;39.17
30856;BME280;17570;0.000;0.000;2023-04-03T05:20:54;96426.98;;;15.53;39.29
30856;BME280;17570;0.000;0.000;2023-04-03T05:23:22;96423.20;;;15.56;39.19
30856;BME280;17570;0.000;0.000;2023-04-03T05:25:49;96423.70;;;15.60;39.38
30856;BME280;17570;0.000;0.000;2023-04-03T05:28:17;96428.46;;;15.64;39.40
30856;BME280;17570;0.000;0.000;2023-04-03T05:30:52;96432.20;;;15.70;39.46
30856;BME280;17570;0.000;0.000;2023-04-03T05:33:16;96432.52;;;15.75;39.26
30856;BME280;17570;0.000;0.000;2023-04-03T05:35:45;96426.28;;;15.84;39.15
30856;BME280;17570;0.000;0.000;2023-04-03T05:38:14;96432.49;;;15.91;39.18
30856;BME280;17570;0.000;0.000;2023-04-03T05:40:44;96433.94;;;15.94;39.11
30856;BME280;17570;0.000;0.000;2023-04-03T05:43:13;96431.30;;;16.02;39.03
30856;BME280;17570;0.000;0.000;2023-04-03T05:45:41;96430.62;;;16.08;39.16
30856;BME280;17570;0.000;0.000;2023-04-03T05:48:09;96422.25;;;16.13;39.13
30856;BME280;17570;0.000;0.000;2023-04-03T05:50:39;96416.98;;;16.21;39.23
30856;BME280;17570;0.000;0.000;2023-04-03T05:53:13;96410.43;;;16.25;39.10
30856;BME280;17570;0.000;0.000;2023-04-03T05:55:38;96411.06;;;16.27;39.30
30856;BME280;17570;0.000;0.000;2023-04-03T05:58:06;96413.65;;;16.35;39.25
30856;BME280;17570;0.000;0.000;2023-04-03T06:00:36;96409.70;;;16.39;39.25
30856;BME280;17570;0.000;0.000;2023-04-03T06:03:03;96413.28;;;16.46;39.04
30856;BME280;17570;0.000;0.000;2023-04-03T06:05:31;96412.91;;;16.49;38.81
30856;BME280;17570;0.000;0.000;2023-04-03T06:07:59;96421.88;;;16.55;38.82
30856;BME280;17570;0.000;0.000;2023-04-03T06:10:27;96420.73;;;16.57;38.73
30856;BME280;17570;0.000;0.000;2023-04-03T06:12:54;96417.78;;;16.61;38.53
30856;BME280;17570;0.000;0.000;2023-04-03T06:15:22;96414.80;;;16.64;38.45
30856;BME280;17570;0.000;0.000;2023-04-03T06:17:50;96429.66;;;16.71;38.25
30856;BME280;17570;0.000;0.000;2023-04-03T06:20:17;96427.37;;;16.76;38.10
30856;BME280;17570;0.000;0.000;2023-04-03T06:22:45;96424.56;;;16.78;38.24
30856;BME280;17570;0.000;0.000;2023-04-03T06:25:12;96428.13;;;16.85;38.49
30856;BME280;17570;0.000;0.000;2023-04-03T06:27:40;96411.55;;;16.93;38.29
30856;BME280;17570;0.000;0.000;2023-04-03T06:30:08;96416.89;;;16.99;38.32
30856;BME280;17570;0.000;0.000;2023-04-03T06:32:35;96414.84;;;17.09;37.91
30856;BME280;17570;0.000;0.000;2023-04-03T06:35:04;96416.30;;;17.12;37.79
30856;BME280;17570;0.000;0.000;2023-04-03T06:37:31;96422.36;;;17.13;37.78
30856;BME280;17570;0.000;0.000;2023-04-03T06:39:59;96415.88;;;17.23;37.55
30856;BME280;17570;0.000;0.000;2023-04-03T06:42:26;96418.06;;;17.34;37.09
30856;BME280;17570;0.000;0.000;2023-04-03T06:45:01;96415.56;;;17.41;37.26
30856;BME280;17570;0.000;0.000;2023-04-03T06:47:29;96413.75;;;17.42;37.39
30856;BME280;17570;0.000;0.000;2023-04-03T06:49:58;96422.08;;;15.42;39.80
30856;BME280;17570;0.000;0.000;2023-04-03T06:52:26;96435.13;;;13.84;44.11
30856;BME280;17570;0.000;0.000;2023-04-03T06:54:54;96434.71;;;13.01;45.97
30856;BME280;17570;0.000;0.000;2023-04-03T06:57:23;96442.20;;;12.86;46.85
30856;BME280;17570;0.000;0.000;2023-04-03T06:59:51;96431.91;;;14.83;43.12
30856;BME280;17570;0.000;0.000;2023-04-03T07:02:18;96425.44;;;16.00;41.15
30856;BME280;17570;0.000;0.000;2023-04-03T07:04:47;96427.89;;;16.64;40.53
30856;BME280;17570;0.000;0.000;2023-04-03T07:07:15;96430.00;;;16.99;39.37
30856;BME280;17570;0.000;0.000;2023-04-03T07:09:46;96427.36;;;17.22;39.11
30856;BME280;17570;0.000;0.000;2023-04-03T07:12:14;96431.64;;;17.38;38.73
30856;BME280;17570;0.000;0.000;2023-04-03T07:14:42;96426.14;;;17.48;37.93
30856;BME280;17570;0.000;0.000;2023-04-03T07:17:12;96430.98;;;17.59;37.88
30856;BME280;17570;0.000;0.000;2023-04-03T07:19:39;96437.78;;;17.68;37.39
30856;BME280;17570;0.000;0.000;2023-04-03T07:22:06;96430.67;;;17.77;37.52
30856;BME280;17570;0.000;0.000;2023-04-03T07:24:34;96422.33;;;17.88;37.28
30856;BME280;17570;0.000;0.000;2023-04-03T07:27:02;96422.06;;;17.98;36.82
30856;BME280;17570;0.000;0.000;2023-04-03T07:29:29;96429.04;;;18.05;36.02
30856;BME280;17570;0.000;0.000;2023-04-03T07:31:57;96428.92;;;18.14;35.97
30856;BME280;17570;0.000;0.000;2023-04-03T07:34:25;96420.80;;;18.23;35.49
30856;BME280;17570;0.000;0.000;2023-04-03T07:36:52;96417.88;;;18.33;36.21
30856;BME280;17570;0.000;0.000;2023-04-03T07:39:20;96414.77;;;18.44;36.14
30856;BME280;17570;0.000;0.000;2023-04-03T07:41:47;96417.91;;;18.54;36.40
30856;BME280;17570;0.000;0.000;2023-04-03T07:44:15;96418.41;;;18.65;36.18
30856;BME280;17570;0.000;0.000;2023-04-03T07:46:42;96411.91;;;18.75;36.77
30856;BME280;17570;0.000;0.000;2023-04-03T07:49:10;96413.22;;;18.86;36.72
30856;BME280;17570;0.000;0.000;2023-04-03T07:51:37;96419.62;;;18.98;35.48
30856;BME280;17570;0.000;0.000;2023-04-03T07:54:06;96428.81;;;19.09;35.38
30856;BME280;17570;0.000;0.000;2023-04-03T07:56:36;96425.86;;;19.19;35.40
30856;BME280;17570;0.000;0.000;2023-04-03T07:59:04;96423.11;;;19.27;35.51
30856;BME280;17570;0.000;0.000;2023-04-03T08:01:31;96415.70;;;19.37;35.59
30856;BME280;17570;0.000;0.000;2023-04-03T08:04:00;96411.55;;;19.49;36.81
30856;BME280;17570;0.000;0.000;2023-04-03T08:06:27;96417.66;;;19.56;35.68
30856;BME280;17570;0.000;0.000;2023-04-03T08:08:57;96401.35;;;19.68;34.63
30856;BME280;17570;0.000;0.000;2023-04-03T08:11:25;96392.70;;;19.74;35.17
30856;BME280;17570;0.000;0.000;2023-04-03T08:13:53;96387.45;;;19.80;33.37
30856;BME280;17570;0.000;0.000;2023-04-03T08:16:20;96387.11;;;19.90;33.89
30856;BME280;17570;0.000;0.000;2023-04-03T08:18:48;96380.87;;;19.98;33.03
30856;BME280;17570;0.000;0.000;2023-04-03T08:21:16;96392.45;;;20.03;33.67
30856;BME280;17570;0.000;0.000;2023-04-03T08:23:44;96388.84;;;20.11;33.43
30856;BME280;17570;0.000;0.000;2023-04-03T08:26:16;96382.98;;;20.16;34.16
30856;BME280;17570;0.000;0.000;2023-04-03T08:28:43;96378.54;;;20.23;33.17
30856;BME280;17570;0.000;0.000;2023-04-03T08:31:12;96384.45;;;20.25;34.31
30856;BME280;17570;0.000;0.000;2023-04-03T08:33:40;96383.27;;;20.34;34.30
30856;BME280;17570;0.000;0.000;2023-04-03T08:36:19;96375.16;;;20.42;32.71
30856;BME280;17570;0.000;0.000;2023-04-03T08:38:38;96377.66;;;20.50;33.75
30856;BME280;17570;0.000;0.000;2023-04-03T08:41:18;96371.82;;;20.61;32.54
30856;BME280;17570;0.000;0.000;2023-04-03T08:44:31;96374.67;;;20.73;33.75
30856;BME280;17570;0.000;0.000;2023-04-03T08:46:15;96367.98;;;20.77;32.98
30856;BME280;17570;0.000;0.000;2023-04-03T08:48:44;96371.67;;;20.89;32.96
30856;BME280;17570;0.000;0.000;2023-04-03T08:51:16;96369.02;;;21.03;33.31
30856;BME280;17570;0.000;0.000;2023-04-03T08:53:55;96362.34;;;21.13;33.10
30856;BME280;17570;0.000;0.000;2023-04-03T08:56:22;96362.14;;;21.22;33.66
30856;BME280;17570;0.000;0.000;2023-04-03T08:58:59;96356.04;;;21.28;32.89
30856;BME280;17570;0.000;0.000;2023-04-03T09:03:52;96358.90;;;21.46;32.81
30856;BME280;17570;0.000;0.000;2023-04-03T09:06:21;96350.77;;;21.54;31.48
30856;BME280;17570;0.000;0.000;2023-04-03T09:08:50;96353.17;;;21.62;31.61
30856;BME280;17570;0.000;0.000;2023-04-03T09:14:07;96350.91;;;21.73;30.99
30856;BME280;17570;0.000;0.000;2023-04-03T09:16:35;96344.19;;;21.77;30.07
30856;BME280;17570;0.000;0.000;2023-04-03T09:19:47;96344.00;;;21.72;30.76
30856;BME280;17570;0.000;0.000;2023-04-03T09:21:37;96338.72;;;21.78;30.29
30856;BME280;17570;0.000;0.000;2023-04-03T09:24:05;96345.00;;;21.84;30.55
30856;BME280;17570;0.000;0.000;2023-04-03T09:26:34;96340.92;;;21.88;30.17
30856;BME280;17570;0.000;0.000;2023-04-03T09:29:05;96335.39;;;21.96;30.82
30856;BME280;17570;0.000;0.000;2023-04-03T09:31:39;96330.91;;;22.03;30.69
30856;BME280;17570;0.000;0.000;2023-04-03T09:34:18;96331.29;;;22.13;31.27
30856;BME280;17570;0.000;0.000;2023-04-03T09:36:44;96327.16;;;22.24;30.83
30856;BME280;17570;0.000;0.000;2023-04-03T09:39:18;96329.40;;;22.27;31.08
30856;BME280;17570;0.000;0.000;2023-04-03T09:41:42;96319.39;;;22.36;30.43
30856;BME280;17570;0.000;0.000;2023-04-03T09:44:22;96319.73;;;22.46;30.05
30856;BME280;17570;0.000;0.000;2023-04-03T09:46:49;96320.52;;;22.53;31.21
30856;BME280;17570;0.000;0.000;2023-04-03T09:49:17;96322.72;;;22.56;30.40
30856;BME280;17570;0.000;0.000;2023-04-03T09:51:46;96315.15;;;22.66;30.21
30856;BME280;17570;0.000;0.000;2023-04-03T09:54:30;96322.00;;;22.74;30.31
30856;BME280;17570;0.000;0.000;2023-04-03T09:56:54;96318.29;;;22.82;30.62
30856;BME280;17570;0.000;0.000;2023-04-03T09:59:23;96317.09;;;22.78;28.94
30856;BME280;17570;0.000;0.000;2023-04-03T10:04:20;96316.67;;;22.81;28.32
30856;BME280;17570;0.000;0.000;2023-04-03T10:06:52;96308.09;;;22.85;28.76
30856;BME280;17570;0.000;0.000;2023-04-03T10:09:26;96312.32;;;22.93;27.89
30856;BME280;17570;0.000;0.000;2023-04-03T10:12:01;96313.52;;;22.97;28.18
30856;BME280;17570;0.000;0.000;2023-04-03T10:14:32;96294.98;;;22.97;27.92
30856;BME280;17570;0.000;0.000;2023-04-03T10:22:28;96288.46;;;23.00;27.60
30856;BME280;17570;0.000;0.000;2023-04-03T10:24:47;96281.09;;;23.02;27.23
30856;BME280;17570;0.000;0.000;2023-04-03T10:27:13;96281.67;;;23.29;26.96
30856;BME280;17570;0.000;0.000;2023-04-03T10:30:06;96270.57;;;23.38;27.86
30856;BME280;17570;0.000;0.000;2023-04-03T10:35:18;96280.94;;;23.40;28.39
30856;BME280;17570;0.000;0.000;2023-04-03T10:42:56;96264.75;;;23.30;28.59
30856;BME280;17570;0.000;0.000;2023-04-03T10:45:31;96268.20;;;23.30;27.54
30856;BME280;17570;0.000;0.000;2023-04-03T10:53:31;96255.26;;;23.59;29.59
30856;BME280;17570;0.000;0.000;2023-04-03T10:58:44;96248.58;;;23.56;28.39
30856;BME280;17570;0.000;0.000;2023-04-03T11:01:14;96247.69;;;23.44;28.55
30856;BME280;17570;0.000;0.000;2023-04-03T11:03:43;96246.45;;;23.47;28.55
30856;BME280;17570;0.000;0.000;2023-04-03T11:06:12;96241.53;;;23.50;29.25
30856;BME280;17570;0.000;0.000;2023-04-03T11:11:22;96238.41;;;23.53;28.02
30856;BME280;17570;0.000;0.000;2023-04-03T11:13:50;96237.55;;;23.41;27.45
30856;BME280;17570;0.000;0.000;2023-04-03T11:16:26;96242.02;;;23.40;27.41
30856;BME280;17570;0.000;0.000;2023-04-03T11:21:32;96239.59;;;23.39;28.72
30856;BME280;17570;0.000;0.000;2023-04-03T11:23:58;96235.77;;;23.35;27.24
30856;BME280;17570;0.000;0.000;2023-04-03T11:26:27;96234.44;;;23.26;27.39
30856;BME280;17570;0.000;0.000;2023-04-03T11:28:59;96241.57;;;23.25;28.02
30856;BME280;17570;0.000;0.000;2023-04-03T11:31:31;96230.98;;;23.25;27.95
30856;BME280;17570;0.000;0.000;2023-04-03T11:36:39;96229.50;;;23.11;28.14
30856;BME280;17570;0.000;0.000;2023-04-03T11:39:10;96229.42;;;22.99;28.19
30856;BME280;17570;0.000;0.000;2023-04-03T11:41:32;96223.52;;;22.97;28.48
30856;BME280;17570;0.000;0.000;2023-04-03T11:44:27;96228.39;;;23.00;29.12
30856;BME280;17570;0.000;0.000;2023-04-03T11:46:52;96230.95;;;23.07;29.00
30856;BME280;17570;0.000;0.000;2023-04-03T11:52:09;96236.75;;;22.97;29.84
30856;BME280;17570;0.000;0.000;2023-04-03T11:54:36;96238.21;;;22.93;29.63
30856;BME280;17570;0.000;0.000;2023-04-03T11:57:23;96225.44;;;22.90;29.16
30856;BME280;17570;0.000;0.000;2023-04-03T11:59:51;96235.00;;;22.84;29.57
30856;BME280;17570;0.000;0.000;2023-04-03T12:02:34;96242.58;;;22.81;30.41
30856;BME280;17570;0.000;0.000;2023-04-03T12:05:33;96246.61;;;22.83;31.57
30856;BME280;17570;0.000;0.000;2023-04-03T12:07:23;96245.23;;;22.81;31.17
30856;BME280;17570;0.000;0.000;2023-04-03T12:09:54;96243.23;;;22.76;31.50
30856;BME280;17570;0.000;0.000;2023-04-03T12:15:11;96247.48;;;22.77;32.47
30856;BME280;17570;0.000;0.000;2023-04-03T12:17:26;96246.88;;;22.75;33.21
30856;BME280;17570;0.000;0.000;2023-04-03T12:19:56;96241.81;;;22.74;32.97
30856;BME280;17570;0.000;0.000;2023-04-03T12:22:23;96247.91;;;22.74;32.78
30856;BME280;17570;0.000;0.000;2023-04-03T12:24:53;96241.23;;;22.72;33.02
30856;BME280;17570;0.000;0.000;2023-04-03T12:27:23;96244.88;;;22.71;34.17
30856;BME280;17570;0.000;0.000;2023-04-03T12:29:55;96242.84;;;22.73;32.97
30856;BME280;17570;0.000;0.000;2023-04-03T12:32:32;96242.04;;;22.72;32.66
30856;BME280;17570;0.000;0.000;2023-04-03T12:34:59;96234.75;;;22.68;33.28
30856;BME280;17570;0.000;0.000;2023-04-03T12:46:18;96225.45;;;22.58;33.80
30856;BME280;17570;0.000;0.000;2023-04-03T12:48:00;96223.69;;;22.52;33.85
30856;BME280;17570;0.000;0.000;2023-04-03T12:50:31;96217.14;;;22.55;33.60
30856;BME280;17570;0.000;0.000;2023-04-03T12:55:31;96217.56;;;22.52;33.66
30856;BME280;17570;0.000;0.000;2023-04-03T12:58:21;96216.55;;;22.53;33.61
30856;BME280;17570;0.000;0.000;2023-04-03T13:00:45;96222.91;;;22.45;34.19
30856;BME280;17570;0.000;0.000;2023-04-03T13:03:24;96220.97;;;22.34;34.88
30856;BME280;17570;0.000;0.000;2023-04-03T13:05:44;96216.84;;;22.38;34.88
30856;BME280;17570;0.000;0.000;2023-04-03T13:08:12;96214.81;;;22.40;34.45
30856;BME280;17570;0.000;0.000;2023-04-03T13:13:23;96208.75;;;22.33;34.37
30856;BME280;17570;0.000;0.000;2023-04-03T13:20:46;96193.75;;;22.27;33.89
30856;BME280;17570;0.000;0.000;2023-04-03T13:23:15;96182.95;;;22.28;34.41
30856;BME280;17570;0.000;0.000;2023-04-03T13:25:44;96181.40;;;22.21;33.83
30856;BME280;17570;0.000;0.000;2023-04-03T13:28:15;96181.98;;;22.23;34.46
30856;BME280;17570;0.000;0.000;2023-04-03T13:30:55;96175.50;;;22.19;34.78
30856;BME280;17570;0.000;0.000;2023-04-03T13:33:20;96168.38;;;22.19;35.13
30856;BME280;17570;0.000;0.000;2023-04-03T13:36:25;96163.98;;;22.06;35.72
30856;BME280;17570;0.000;0.000;2023-04-03T13:38:27;96158.89;;;22.05;35.74
30856;BME280;17570;0.000;0.000;2023-04-03T13:40:57;96162.62;;;21.97;35.64
30856;BME280;17570;0.000;0.000;2023-04-03T13:43:28;96168.54;;;21.93;36.45
30856;BME280;17570;0.000;0.000;2023-04-03T13:46:00;96162.81;;;21.96;36.00
30856;BME280;17570;0.000;0.000;2023-04-03T13:48:40;96162.64;;;21.90;36.47
30856;BME280;17570;0.000;0.000;2023-04-03T13:53:46;96157.63;;;21.82;36.43
30856;BME280;17570;0.000;0.000;2023-04-03T13:56:21;96164.82;;;21.69;36.82
30856;BME280;17570;0.000;0.000;2023-04-03T13:58:52;96156.45;;;21.72;36.94
30856;BME280;17570;0.000;0.000;2023-04-03T14:01:21;96152.20;;;21.71;37.07
30856;BME280;17570;0.000;0.000;2023-04-03T14:03:59;96159.33;;;21.63;37.74
30856;BME280;17570;0.000;0.000;2023-04-03T14:06:27;96154.55;;;21.47;38.17
30856;BME280;17570;0.000;0.000;2023-04-03T14:08:55;96152.94;;;21.46;37.91
30856;BME280;17570;0.000;0.000;2023-04-03T14:11:29;96155.36;;;21.48;37.92
30856;BME280;17570;0.000;0.000;2023-04-03T14:13:53;96168.78;;;21.46;39.00
30856;BME280;17570;0.000;0.000;2023-04-03T14:16:24;96160.69;;;21.34;39.21
30856;BME280;17570;0.000;0.000;2023-04-03T14:18:51;96167.37;;;21.30;38.64
30856;BME280;17570;0.000;0.000;2023-04-03T14:21:19;96171.08;;;21.23;40.79
30856;BME280;17570;0.000;0.000;2023-04-03T14:23:47;96169.86;;;21.19;39.04
30856;BME280;17570;0.000;0.000;2023-04-03T14:26:22;96173.72;;;21.16;39.65